Flight Track Log - Related Links

Times and Time Zones

All times are in EDT time to prevent confusion due to time zone crossing. See the EGF3994 flight status page for this flight to view local times or setup timezone preferences in your user account.

Time Position Orientation Groundspeed Altitude Reporting Facility
EDT Latitude Longitude Course Direction KTS MPH feet Rate Location/Type
Sat 06:47:53 PM 41.9333 -87.9167 90° East 189 217 2,200  Level Chicago TRACON
Sat 06:48:53 PM 41.9000 -87.8500 124° Southeast 218 251 4,500 1,450 Climbing Chicago TRACON
Sat 06:49:00 PM 41.9667 -87.6128 90° East  Level FlightAware Approximate
Sat 06:49:53 PM 41.9000 -87.7500 90° East 267 307 5,100  Level Chicago TRACON
Sat 06:50:00 PM 41.9603 -87.4698 98° East  Level FlightAware Approximate
Sat 06:50:59 PM 41.8992 -87.6592 91° East 263 303 6,200  Level Chicago Center
Sat 06:51:00 PM 41.9472 -87.3273 95° East  Level FlightAware Approximate
Sat 06:52:00 PM 41.9370 -87.1845 95° East  Level FlightAware Approximate
Sat 06:52:01 PM 41.9064 -87.5536 85° East 281 323 8,600  Level Chicago Center
Sat 06:53:00 PM 41.9333 -87.0609 90° East  Level FlightAware Approximate
Sat 06:53:03 PM 41.9147 -87.4444 84° East 291 335 10,800  Level Chicago Center
Sat 06:54:04 PM 41.9267 -87.2997 84° East 320 368 12,900 1,512 Climbing Chicago Center
Sat 06:55:06 PM 41.9375 -87.1711 83° East 344 396 13,900 1,113 Climbing Chicago Center
Sat 06:56:08 PM 41.9208 -87.0286 99° East 382 440 15,200 1,268 Climbing Chicago Center
Sat 06:57:09 PM 41.9031 -86.8825 99° East 393 452 16,500 1,268 Climbing Chicago Center
Sat 06:58:11 PM 41.8864 -86.7322 98° East 404 465 17,800 1,238 Climbing Chicago Center
Sat 06:59:15 PM 41.8514 -86.5814 107° East 413 475 19,100 1,286 Climbing Chicago Center
Sat 07:00:17 PM 41.7811 -86.4619 128° Southeast 409 471 20,500 1,707 Climbing Chicago Center
Sat 07:01:18 PM 41.6947 -86.3194 129° Southeast 412 474 22,600 1,220 Climbing Chicago Center
Sat 07:02:20 PM 41.6233 -86.1983 128° Southeast 416 479 23,000 194 Climbing Chicago Center
Sat 07:03:22 PM 41.5433 -86.0672 129° Southeast 450 518 23,000  Level Chicago Center
Sat 07:04:23 PM 41.4614 -85.9286 128° Southeast 474 545 23,000  Level Chicago Center
Sat 07:05:25 PM 41.3758 -85.7906 130° Southeast 486 559 23,000  Level Chicago Center
Sat 07:06:27 PM 41.2925 -85.6531 129° Southeast 484 557 23,000  Level Chicago Center
Sat 07:07:28 PM 41.1928 -85.4861 128° Southeast 486 559 23,000 -585 Level Chicago Center
Sat 07:08:30 PM 41.1106 -85.3539 130° Southeast 474 545 21,800 -1,415 Descending Chicago Center
Sat 07:09:31 PM 41.0289 -85.2167 128° Southeast 476 548 20,100 -1,610 Descending Chicago Center
Sat 07:10:33 PM 40.9497 -85.0889 129° Southeast 462 532 18,500 -1,548 Descending Chicago Center
Sat 07:11:35 PM 40.8739 -84.9689 130° Southeast 439 505 16,900 -1,366 Descending Chicago Center
Sat 07:12:36 PM 40.7972 -84.8450 129° Southeast 436 502 15,700 -927 Descending Chicago Center
Sat 07:13:38 PM 40.7100 -84.7075 130° Southeast 415 478 15,000 -396 Descending Chicago Center
Sat 07:14:22 PM 40.6578 -84.6247 130° Southeast 415 478 15,000 -686 Level Indianapolis Center
Sat 07:15:23 PM 40.5833 -84.5078 130° Southeast 416 479 13,800 -1,186 Descending Indianapolis Center
Sat 07:15:48 PM 40.5522 -84.4561 128° Southeast 412 474 13,300 -1,180 Descending Indianapolis Center
Sat 07:16:24 PM 40.5128 -84.3933 130° Southeast 405 466 12,600 -1,175 Descending Indianapolis Center
Sat 07:17:25 PM 40.4392 -84.2853 132° Southeast 397 457 11,400 -976 Descending Indianapolis Center
Sat 07:18:27 PM 40.3586 -84.2303 153° Southeast 328 377 10,600 -1,220 Descending Indianapolis Center
Sat 07:19:28 PM 40.2839 -84.2200 174° South 274 315 8,900 -1,918 Descending Indianapolis Center
Sat 07:20:29 PM 40.2083 -84.2233 182° South 274 315 6,700 -1,967 Descending Indianapolis Center
Sat 07:21:30 PM 40.1344 -84.2178 177° South 271 312 4,900 -1,770 Descending Indianapolis Center

Login

Don't have an account? Register now (free) for customized features, flight alerts, and more!